sensor_id;sensor_type;location;lat;lon;timestamp;P1;durP1;ratioP1;P2;durP2;ratioP2
51764;SDS011;37835;53.256;6.456;2024-01-07T00:00:02;17.43;;;11.57;;
51764;SDS011;37835;53.256;6.456;2024-01-07T00:02:28;21.23;;;12.37;;
51764;SDS011;37835;53.256;6.456;2024-01-07T00:04:55;16.67;;;10.70;;
51764;SDS011;37835;53.256;6.456;2024-01-07T00:07:22;15.27;;;9.93;;
51764;SDS011;37835;53.256;6.456;2024-01-07T00:09:48;14.30;;;9.20;;
51764;SDS011;37835;53.256;6.456;2024-01-07T00:12:14;15.20;;;9.77;;
51764;SDS011;37835;53.256;6.456;2024-01-07T00:14:40;14.93;;;9.57;;
51764;SDS011;37835;53.256;6.456;2024-01-07T00:17:05;13.63;;;9.00;;
51764;SDS011;37835;53.256;6.456;2024-01-07T00:19:31;15.60;;;9.70;;
51764;SDS011;37835;53.256;6.456;2024-01-07T00:21:57;12.87;;;9.40;;
51764;SDS011;37835;53.256;6.456;2024-01-07T00:24:23;16.17;;;9.67;;
51764;SDS011;37835;53.256;6.456;2024-01-07T00:26:50;15.27;;;10.17;;
51764;SDS011;37835;53.256;6.456;2024-01-07T00:29:16;17.10;;;9.80;;
51764;SDS011;37835;53.256;6.456;2024-01-07T00:31:42;18.03;;;11.00;;
51764;SDS011;37835;53.256;6.456;2024-01-07T00:34:07;14.40;;;10.73;;
51764;SDS011;37835;53.256;6.456;2024-01-07T00:36:33;18.50;;;11.30;;
51764;SDS011;37835;53.256;6.456;2024-01-07T00:38:59;17.27;;;11.27;;
51764;SDS011;37835;53.256;6.456;2024-01-07T00:41:24;18.07;;;11.30;;
51764;SDS011;37835;53.256;6.456;2024-01-07T00:43:50;15.80;;;10.57;;
51764;SDS011;37835;53.256;6.456;2024-01-07T00:46:16;17.53;;;11.07;;
51764;SDS011;37835;53.256;6.456;2024-01-07T00:48:41;17.10;;;11.63;;
51764;SDS011;37835;53.256;6.456;2024-01-07T00:51:07;14.70;;;10.70;;
51764;SDS011;37835;53.256;6.456;2024-01-07T00:53:32;18.43;;;10.97;;
51764;SDS011;37835;53.256;6.456;2024-01-07T00:55:58;19.83;;;11.73;;
51764;SDS011;37835;53.256;6.456;2024-01-07T00:58:24;17.17;;;11.27;;
51764;SDS011;37835;53.256;6.456;2024-01-07T01:00:49;18.43;;;11.63;;
51764;SDS011;37835;53.256;6.456;2024-01-07T01:03:16;22.13;;;12.87;;
51764;SDS011;37835;53.256;6.456;2024-01-07T01:05:41;18.30;;;11.80;;
51764;SDS011;37835;53.256;6.456;2024-01-07T01:08:07;21.10;;;11.57;;
51764;SDS011;37835;53.256;6.456;2024-01-07T01:10:33;17.67;;;11.17;;
51764;SDS011;37835;53.256;6.456;2024-01-07T01:12:58;17.33;;;10.73;;
51764;SDS011;37835;53.256;6.456;2024-01-07T01:15:24;15.70;;;10.40;;
51764;SDS011;37835;53.256;6.456;2024-01-07T01:17:49;16.73;;;9.70;;
51764;SDS011;37835;53.256;6.456;2024-01-07T01:20:15;14.57;;;9.27;;
51764;SDS011;37835;53.256;6.456;2024-01-07T01:22:41;14.60;;;9.30;;
51764;SDS011;37835;53.256;6.456;2024-01-07T01:25:07;14.90;;;9.07;;
51764;SDS011;37835;53.256;6.456;2024-01-07T01:27:32;14.30;;;9.00;;
51764;SDS011;37835;53.256;6.456;2024-01-07T01:29:58;18.13;;;8.70;;
51764;SDS011;37835;53.256;6.456;2024-01-07T01:32:24;11.13;;;8.00;;
51764;SDS011;37835;53.256;6.456;2024-01-07T01:34:49;13.13;;;8.30;;
51764;SDS011;37835;53.256;6.456;2024-01-07T01:37:15;13.77;;;8.67;;
51764;SDS011;37835;53.256;6.456;2024-01-07T01:39:41;14.03;;;8.83;;
51764;SDS011;37835;53.256;6.456;2024-01-07T01:42:06;13.20;;;8.53;;
51764;SDS011;37835;53.256;6.456;2024-01-07T01:44:32;11.43;;;8.40;;
51764;SDS011;37835;53.256;6.456;2024-01-07T01:46:59;14.40;;;8.37;;
51764;SDS011;37835;53.256;6.456;2024-01-07T01:49:26;13.80;;;8.20;;
51764;SDS011;37835;53.256;6.456;2024-01-07T01:51:53;11.33;;;8.67;;
51764;SDS011;37835;53.256;6.456;2024-01-07T01:54:19;13.20;;;7.70;;
51764;SDS011;37835;53.256;6.456;2024-01-07T01:56:45;14.17;;;8.33;;
51764;SDS011;37835;53.256;6.456;2024-01-07T01:59:13;13.57;;;8.33;;
51764;SDS011;37835;53.256;6.456;2024-01-07T02:01:39;13.97;;;8.70;;
51764;SDS011;37835;53.256;6.456;2024-01-07T02:04:05;10.93;;;7.50;;
51764;SDS011;37835;53.256;6.456;2024-01-07T02:06:31;9.53;;;7.07;;
51764;SDS011;37835;53.256;6.456;2024-01-07T02:08:57;10.07;;;6.50;;
51764;SDS011;37835;53.256;6.456;2024-01-07T02:11:23;11.80;;;7.00;;
51764;SDS011;37835;53.256;6.456;2024-01-07T02:13:49;10.17;;;7.07;;
51764;SDS011;37835;53.256;6.456;2024-01-07T02:16:15;10.80;;;7.30;;
51764;SDS011;37835;53.256;6.456;2024-01-07T02:18:41;10.63;;;6.73;;
51764;SDS011;37835;53.256;6.456;2024-01-07T02:21:08;10.33;;;6.80;;
51764;SDS011;37835;53.256;6.456;2024-01-07T02:23:35;11.00;;;6.50;;
51764;SDS011;37835;53.256;6.456;2024-01-07T02:26:00;11.70;;;6.77;;
51764;SDS011;37835;53.256;6.456;2024-01-07T02:28:26;9.60;;;6.20;;
51764;SDS011;37835;53.256;6.456;2024-01-07T02:30:52;9.53;;;6.30;;
51764;SDS011;37835;53.256;6.456;2024-01-07T02:33:17;9.83;;;6.70;;
51764;SDS011;37835;53.256;6.456;2024-01-07T02:35:43;12.00;;;6.97;;
51764;SDS011;37835;53.256;6.456;2024-01-07T02:38:09;8.43;;;6.00;;
51764;SDS011;37835;53.256;6.456;2024-01-07T02:40:34;9.60;;;6.40;;
51764;SDS011;37835;53.256;6.456;2024-01-07T02:43:00;9.17;;;6.40;;
51764;SDS011;37835;53.256;6.456;2024-01-07T02:45:25;9.47;;;6.40;;
51764;SDS011;37835;53.256;6.456;2024-01-07T02:47:51;8.23;;;5.97;;
51764;SDS011;37835;53.256;6.456;2024-01-07T02:50:17;8.37;;;5.77;;
51764;SDS011;37835;53.256;6.456;2024-01-07T02:52:42;7.70;;;5.53;;
51764;SDS011;37835;53.256;6.456;2024-01-07T02:55:08;8.73;;;5.70;;
51764;SDS011;37835;53.256;6.456;2024-01-07T02:57:34;14.03;;;5.67;;
51764;SDS011;37835;53.256;6.456;2024-01-07T03:00:00;8.17;;;5.53;;
51764;SDS011;37835;53.256;6.456;2024-01-07T03:02:26;7.50;;;5.30;;
51764;SDS011;37835;53.256;6.456;2024-01-07T03:04:51;6.63;;;5.00;;
51764;SDS011;37835;53.256;6.456;2024-01-07T03:07:17;9.63;;;5.67;;
51764;SDS011;37835;53.256;6.456;2024-01-07T03:09:43;8.50;;;4.73;;
51764;SDS011;37835;53.256;6.456;2024-01-07T03:12:08;8.70;;;4.73;;
51764;SDS011;37835;53.256;6.456;2024-01-07T03:14:34;6.53;;;4.70;;
51764;SDS011;37835;53.256;6.456;2024-01-07T03:16:59;7.23;;;4.90;;
51764;SDS011;37835;53.256;6.456;2024-01-07T03:19:25;7.50;;;5.27;;
51764;SDS011;37835;53.256;6.456;2024-01-07T03:21:51;6.53;;;4.90;;
51764;SDS011;37835;53.256;6.456;2024-01-07T03:24:16;5.77;;;4.33;;
51764;SDS011;37835;53.256;6.456;2024-01-07T03:26:42;9.67;;;5.03;;
51764;SDS011;37835;53.256;6.456;2024-01-07T03:29:07;8.43;;;5.10;;
51764;SDS011;37835;53.256;6.456;2024-01-07T03:31:33;7.40;;;4.80;;
51764;SDS011;37835;53.256;6.456;2024-01-07T03:33:59;4.97;;;4.40;;
51764;SDS011;37835;53.256;6.456;2024-01-07T03:36:24;6.77;;;4.30;;
51764;SDS011;37835;53.256;6.456;2024-01-07T03:38:50;5.37;;;4.10;;
51764;SDS011;37835;53.256;6.456;2024-01-07T03:41:17;8.60;;;4.40;;
51764;SDS011;37835;53.256;6.456;2024-01-07T03:43:44;6.37;;;4.23;;
51764;SDS011;37835;53.256;6.456;2024-01-07T03:46:11;4.77;;;3.60;;
51764;SDS011;37835;53.256;6.456;2024-01-07T03:48:36;6.90;;;3.97;;
51764;SDS011;37835;53.256;6.456;2024-01-07T03:51:02;6.10;;;3.93;;
51764;SDS011;37835;53.256;6.456;2024-01-07T03:53:28;4.67;;;3.53;;
51764;SDS011;37835;53.256;6.456;2024-01-07T03:55:53;4.30;;;3.43;;
51764;SDS011;37835;53.256;6.456;2024-01-07T03:58:19;6.67;;;3.20;;
51764;SDS011;37835;53.256;6.456;2024-01-07T04:00:45;4.67;;;3.53;;
51764;SDS011;37835;53.256;6.456;2024-01-07T04:03:10;7.07;;;4.60;;
51764;SDS011;37835;53.256;6.456;2024-01-07T04:05:36;4.03;;;3.30;;
51764;SDS011;37835;53.256;6.456;2024-01-07T04:08:03;4.97;;;3.37;;
51764;SDS011;37835;53.256;6.456;2024-01-07T04:10:28;5.43;;;3.43;;
51764;SDS011;37835;53.256;6.456;2024-01-07T04:12:54;8.63;;;3.50;;
51764;SDS011;37835;53.256;6.456;2024-01-07T04:15:20;5.73;;;3.63;;
51764;SDS011;37835;53.256;6.456;2024-01-07T04:17:46;13.03;;;3.20;;
51764;SDS011;37835;53.256;6.456;2024-01-07T04:20:14;7.60;;;4.00;;
51764;SDS011;37835;53.256;6.456;2024-01-07T04:22:40;7.53;;;3.47;;
51764;SDS011;37835;53.256;6.456;2024-01-07T04:25:06;6.27;;;3.53;;
51764;SDS011;37835;53.256;6.456;2024-01-07T04:27:36;7.67;;;3.90;;
51764;SDS011;37835;53.256;6.456;2024-01-07T04:30:03;4.00;;;3.43;;
51764;SDS011;37835;53.256;6.456;2024-01-07T04:32:29;4.77;;;2.90;;
51764;SDS011;37835;53.256;6.456;2024-01-07T04:34:55;5.53;;;3.17;;
51764;SDS011;37835;53.256;6.456;2024-01-07T04:37:22;5.00;;;3.10;;
51764;SDS011;37835;53.256;6.456;2024-01-07T04:39:48;8.37;;;3.17;;
51764;SDS011;37835;53.256;6.456;2024-01-07T04:42:13;7.47;;;3.10;;
51764;SDS011;37835;53.256;6.456;2024-01-07T04:44:40;4.17;;;2.80;;
51764;SDS011;37835;53.256;6.456;2024-01-07T04:47:22;6.80;;;2.77;;
51764;SDS011;37835;53.256;6.456;2024-01-07T04:49:54;5.30;;;2.63;;
51764;SDS011;37835;53.256;6.456;2024-01-07T04:52:24;6.00;;;2.57;;
51764;SDS011;37835;53.256;6.456;2024-01-07T04:54:53;6.20;;;2.60;;
51764;SDS011;37835;53.256;6.456;2024-01-07T04:57:19;3.13;;;2.60;;
51764;SDS011;37835;53.256;6.456;2024-01-07T04:59:46;4.63;;;2.70;;
51764;SDS011;37835;53.256;6.456;2024-01-07T05:02:12;4.57;;;2.57;;
51764;SDS011;37835;53.256;6.456;2024-01-07T05:04:38;6.37;;;2.40;;
51764;SDS011;37835;53.256;6.456;2024-01-07T05:07:04;3.37;;;2.60;;
51764;SDS011;37835;53.256;6.456;2024-01-07T05:09:31;4.13;;;2.70;;
51764;SDS011;37835;53.256;6.456;2024-01-07T05:11:57;4.77;;;2.27;;
51764;SDS011;37835;53.256;6.456;2024-01-07T05:14:22;6.60;;;2.50;;
51764;SDS011;37835;53.256;6.456;2024-01-07T05:16:48;3.07;;;2.23;;
51764;SDS011;37835;53.256;6.456;2024-01-07T05:19:14;3.73;;;2.23;;
51764;SDS011;37835;53.256;6.456;2024-01-07T05:21:39;3.50;;;2.20;;
51764;SDS011;37835;53.256;6.456;2024-01-07T05:24:05;5.27;;;2.33;;
51764;SDS011;37835;53.256;6.456;2024-01-07T05:26:37;4.97;;;2.40;;
51764;SDS011;37835;53.256;6.456;2024-01-07T05:29:03;3.63;;;1.90;;
51764;SDS011;37835;53.256;6.456;2024-01-07T05:31:29;4.60;;;1.93;;
51764;SDS011;37835;53.256;6.456;2024-01-07T05:33:55;3.57;;;2.20;;
51764;SDS011;37835;53.256;6.456;2024-01-07T05:36:21;3.53;;;2.10;;
51764;SDS011;37835;53.256;6.456;2024-01-07T05:38:47;2.83;;;1.77;;
51764;SDS011;37835;53.256;6.456;2024-01-07T05:41:12;4.27;;;1.90;;
51764;SDS011;37835;53.256;6.456;2024-01-07T05:43:38;1.93;;;1.83;;
51764;SDS011;37835;53.256;6.456;2024-01-07T05:46:03;5.30;;;2.40;;
51764;SDS011;37835;53.256;6.456;2024-01-07T05:48:29;3.07;;;1.93;;
51764;SDS011;37835;53.256;6.456;2024-01-07T05:51:05;2.03;;;1.80;;
51764;SDS011;37835;53.256;6.456;2024-01-07T05:53:31;4.90;;;1.60;;
51764;SDS011;37835;53.256;6.456;2024-01-07T05:55:56;2.33;;;1.80;;
51764;SDS011;37835;53.256;6.456;2024-01-07T05:58:22;5.90;;;1.63;;
51764;SDS011;37835;53.256;6.456;2024-01-07T06:00:47;4.23;;;1.73;;
51764;SDS011;37835;53.256;6.456;2024-01-07T06:03:13;4.30;;;1.57;;
51764;SDS011;37835;53.256;6.456;2024-01-07T06:05:39;4.13;;;2.27;;
51764;SDS011;37835;53.256;6.456;2024-01-07T06:08:05;4.80;;;2.07;;
51764;SDS011;37835;53.256;6.456;2024-01-07T06:10:31;2.47;;;1.80;;
51764;SDS011;37835;53.256;6.456;2024-01-07T06:12:56;2.10;;;1.90;;
51764;SDS011;37835;53.256;6.456;2024-01-07T06:15:22;2.90;;;2.13;;
51764;SDS011;37835;53.256;6.456;2024-01-07T06:17:48;4.83;;;1.87;;
51764;SDS011;37835;53.256;6.456;2024-01-07T06:20:14;2.23;;;1.70;;
51764;SDS011;37835;53.256;6.456;2024-01-07T06:22:39;3.77;;;1.87;;
51764;SDS011;37835;53.256;6.456;2024-01-07T06:25:05;2.97;;;1.80;;
51764;SDS011;37835;53.256;6.456;2024-01-07T06:27:31;2.17;;;1.80;;
51764;SDS011;37835;53.256;6.456;2024-01-07T06:29:57;2.27;;;1.60;;
51764;SDS011;37835;53.256;6.456;2024-01-07T06:32:22;1.63;;;1.40;;
51764;SDS011;37835;53.256;6.456;2024-01-07T06:34:50;3.60;;;1.77;;
51764;SDS011;37835;53.256;6.456;2024-01-07T06:37:16;3.97;;;1.63;;
51764;SDS011;37835;53.256;6.456;2024-01-07T06:39:42;5.07;;;1.80;;
51764;SDS011;37835;53.256;6.456;2024-01-07T06:42:08;2.77;;;1.63;;
51764;SDS011;37835;53.256;6.456;2024-01-07T06:44:33;3.77;;;1.97;;
51764;SDS011;37835;53.256;6.456;2024-01-07T06:46:59;3.00;;;1.87;;
51764;SDS011;37835;53.256;6.456;2024-01-07T06:49:24;4.33;;;1.90;;
51764;SDS011;37835;53.256;6.456;2024-01-07T06:51:50;1.93;;;1.50;;
51764;SDS011;37835;53.256;6.456;2024-01-07T06:54:16;3.43;;;1.70;;
51764;SDS011;37835;53.256;6.456;2024-01-07T06:56:41;2.60;;;1.83;;
51764;SDS011;37835;53.256;6.456;2024-01-07T06:59:08;4.33;;;1.60;;
51764;SDS011;37835;53.256;6.456;2024-01-07T07:01:33;3.37;;;1.90;;
51764;SDS011;37835;53.256;6.456;2024-01-07T07:03:59;1.60;;;1.50;;
51764;SDS011;37835;53.256;6.456;2024-01-07T07:06:25;4.67;;;2.03;;
51764;SDS011;37835;53.256;6.456;2024-01-07T07:08:51;7.53;;;2.40;;
51764;SDS011;37835;53.256;6.456;2024-01-07T07:11:16;5.30;;;1.80;;
51764;SDS011;37835;53.256;6.456;2024-01-07T07:13:42;6.83;;;2.17;;
51764;SDS011;37835;53.256;6.456;2024-01-07T07:16:08;4.43;;;1.83;;
51764;SDS011;37835;53.256;6.456;2024-01-07T07:18:33;2.70;;;1.77;;
51764;SDS011;37835;53.256;6.456;2024-01-07T07:20:59;5.23;;;1.77;;
51764;SDS011;37835;53.256;6.456;2024-01-07T07:23:25;3.27;;;1.90;;
51764;SDS011;37835;53.256;6.456;2024-01-07T07:25:50;4.80;;;1.97;;
51764;SDS011;37835;53.256;6.456;2024-01-07T07:28:16;3.43;;;1.77;;
51764;SDS011;37835;53.256;6.456;2024-01-07T07:30:42;3.70;;;1.90;;
51764;SDS011;37835;53.256;6.456;2024-01-07T07:33:08;4.47;;;2.00;;
51764;SDS011;37835;53.256;6.456;2024-01-07T07:35:33;2.43;;;2.10;;
51764;SDS011;37835;53.256;6.456;2024-01-07T07:37:59;4.57;;;2.07;;
51764;SDS011;37835;53.256;6.456;2024-01-07T07:40:25;3.27;;;2.13;;
51764;SDS011;37835;53.256;6.456;2024-01-07T07:42:50;3.87;;;2.00;;
51764;SDS011;37835;53.256;6.456;2024-01-07T07:45:16;3.63;;;1.93;;
51764;SDS011;37835;53.256;6.456;2024-01-07T07:47:42;5.17;;;2.00;;
51764;SDS011;37835;53.256;6.456;2024-01-07T07:50:10;5.03;;;2.20;;
51764;SDS011;37835;53.256;6.456;2024-01-07T07:52:36;2.10;;;1.90;;
51764;SDS011;37835;53.256;6.456;2024-01-07T07:55:02;5.57;;;2.20;;
51764;SDS011;37835;53.256;6.456;2024-01-07T07:57:27;4.70;;;2.20;;
51764;SDS011;37835;53.256;6.456;2024-01-07T07:59:53;3.30;;;2.03;;
51764;SDS011;37835;53.256;6.456;2024-01-07T08:02:20;2.57;;;1.97;;
51764;SDS011;37835;53.256;6.456;2024-01-07T08:04:46;3.87;;;2.07;;
51764;SDS011;37835;53.256;6.456;2024-01-07T08:07:12;2.63;;;1.90;;
51764;SDS011;37835;53.256;6.456;2024-01-07T08:09:38;2.67;;;2.10;;
51764;SDS011;37835;53.256;6.456;2024-01-07T08:12:04;3.87;;;2.33;;
51764;SDS011;37835;53.256;6.456;2024-01-07T08:14:31;3.20;;;2.47;;
51764;SDS011;37835;53.256;6.456;2024-01-07T08:16:57;4.80;;;2.40;;
51764;SDS011;37835;53.256;6.456;2024-01-07T08:19:23;2.90;;;2.33;;
51764;SDS011;37835;53.256;6.456;2024-01-07T08:21:49;4.60;;;2.77;;
51764;SDS011;37835;53.256;6.456;2024-01-07T08:24:14;5.13;;;2.60;;
51764;SDS011;37835;53.256;6.456;2024-01-07T08:26:40;8.43;;;3.70;;
51764;SDS011;37835;53.256;6.456;2024-01-07T08:29:06;4.50;;;3.10;;
51764;SDS011;37835;53.256;6.456;2024-01-07T08:31:32;5.93;;;3.23;;
51764;SDS011;37835;53.256;6.456;2024-01-07T08:33:58;3.57;;;2.30;;
51764;SDS011;37835;53.256;6.456;2024-01-07T08:36:23;5.30;;;2.70;;
51764;SDS011;37835;53.256;6.456;2024-01-07T08:38:49;3.93;;;2.37;;
51764;SDS011;37835;53.256;6.456;2024-01-07T08:41:15;5.00;;;2.03;;
51764;SDS011;37835;53.256;6.456;2024-01-07T08:43:41;3.70;;;2.27;;
51764;SDS011;37835;53.256;6.456;2024-01-07T08:46:07;3.93;;;1.90;;
51764;SDS011;37835;53.256;6.456;2024-01-07T08:48:32;3.40;;;1.80;;
51764;SDS011;37835;53.256;6.456;2024-01-07T08:50:58;2.33;;;1.90;;
51764;SDS011;37835;53.256;6.456;2024-01-07T08:53:24;7.97;;;2.30;;
51764;SDS011;37835;53.256;6.456;2024-01-07T08:55:49;2.30;;;2.10;;
51764;SDS011;37835;53.256;6.456;2024-01-07T08:58:15;4.60;;;2.10;;
51764;SDS011;37835;53.256;6.456;2024-01-07T09:00:42;7.77;;;2.33;;
51764;SDS011;37835;53.256;6.456;2024-01-07T09:03:08;2.97;;;1.90;;
51764;SDS011;37835;53.256;6.456;2024-01-07T09:05:34;2.70;;;1.80;;
51764;SDS011;37835;53.256;6.456;2024-01-07T09:08:00;2.80;;;2.20;;
51764;SDS011;37835;53.256;6.456;2024-01-07T09:10:26;2.90;;;2.20;;
51764;SDS011;37835;53.256;6.456;2024-01-07T09:12:53;4.93;;;2.10;;
51764;SDS011;37835;53.256;6.456;2024-01-07T09:15:19;4.13;;;2.13;;
51764;SDS011;37835;53.256;6.456;2024-01-07T09:17:45;6.67;;;2.57;;
51764;SDS011;37835;53.256;6.456;2024-01-07T09:20:12;2.27;;;1.90;;
51764;SDS011;37835;53.256;6.456;2024-01-07T09:22:38;3.70;;;2.30;;
51764;SDS011;37835;53.256;6.456;2024-01-07T09:25:05;4.50;;;2.50;;
51764;SDS011;37835;53.256;6.456;2024-01-07T09:27:32;5.20;;;2.10;;
51764;SDS011;37835;53.256;6.456;2024-01-07T09:29:58;4.50;;;2.37;;
51764;SDS011;37835;53.256;6.456;2024-01-07T09:32:24;2.23;;;2.03;;
51764;SDS011;37835;53.256;6.456;2024-01-07T09:34:50;3.87;;;2.27;;
51764;SDS011;37835;53.256;6.456;2024-01-07T09:37:16;3.47;;;2.20;;
51764;SDS011;37835;53.256;6.456;2024-01-07T09:39:42;4.73;;;2.53;;
51764;SDS011;37835;53.256;6.456;2024-01-07T09:42:14;5.63;;;2.70;;
51764;SDS011;37835;53.256;6.456;2024-01-07T09:44:41;2.38;;;2.00;;
51764;SDS011;37835;53.256;6.456;2024-01-07T09:47:10;3.47;;;2.03;;
51764;SDS011;37835;53.256;6.456;2024-01-07T09:49:37;2.17;;;1.83;;
51764;SDS011;37835;53.256;6.456;2024-01-07T09:52:04;3.73;;;2.10;;
51764;SDS011;37835;53.256;6.456;2024-01-07T09:54:30;3.93;;;2.17;;
51764;SDS011;37835;53.256;6.456;2024-01-07T09:57:00;2.37;;;2.17;;
51764;SDS011;37835;53.256;6.456;2024-01-07T09:59:30;7.00;;;2.00;;
51764;SDS011;37835;53.256;6.456;2024-01-07T10:01:56;5.40;;;2.40;;
51764;SDS011;37835;53.256;6.456;2024-01-07T10:04:25;5.03;;;2.30;;
51764;SDS011;37835;53.256;6.456;2024-01-07T10:06:52;4.53;;;2.17;;
51764;SDS011;37835;53.256;6.456;2024-01-07T10:09:19;3.80;;;2.60;;
51764;SDS011;37835;53.256;6.456;2024-01-07T10:11:47;5.17;;;2.47;;
51764;SDS011;37835;53.256;6.456;2024-01-07T10:14:12;4.63;;;2.40;;
51764;SDS011;37835;53.256;6.456;2024-01-07T10:16:38;5.40;;;2.80;;
51764;SDS011;37835;53.256;6.456;2024-01-07T10:19:04;3.97;;;2.47;;
51764;SDS011;37835;53.256;6.456;2024-01-07T10:21:30;5.63;;;3.00;;
51764;SDS011;37835;53.256;6.456;2024-01-07T10:26:37;5.20;;;2.47;;
51764;SDS011;37835;53.256;6.456;2024-01-07T10:29:04;5.60;;;2.43;;
51764;SDS011;37835;53.256;6.456;2024-01-07T10:31:31;6.10;;;2.63;;
51764;SDS011;37835;53.256;6.456;2024-01-07T10:33:57;4.07;;;2.40;;
51764;SDS011;37835;53.256;6.456;2024-01-07T10:36:23;2.93;;;2.30;;
51764;SDS011;37835;53.256;6.456;2024-01-07T10:38:49;5.60;;;2.17;;
51764;SDS011;37835;53.256;6.456;2024-01-07T10:41:17;5.07;;;2.87;;
51764;SDS011;37835;53.256;6.456;2024-01-07T10:43:43;4.97;;;3.20;;
51764;SDS011;37835;53.256;6.456;2024-01-07T10:46:12;8.00;;;3.50;;
51764;SDS011;37835;53.256;6.456;2024-01-07T10:51:27;4.13;;;3.40;;
51764;SDS011;37835;53.256;6.456;2024-01-07T10:53:53;5.90;;;2.93;;
51764;SDS011;37835;53.256;6.456;2024-01-07T10:56:24;3.60;;;2.73;;
51764;SDS011;37835;53.256;6.456;2024-01-07T10:58:56;3.60;;;2.50;;
51764;SDS011;37835;53.256;6.456;2024-01-07T11:01:22;3.27;;;2.97;;
51764;SDS011;37835;53.256;6.456;2024-01-07T11:06:36;5.20;;;2.70;;
51764;SDS011;37835;53.256;6.456;2024-01-07T11:09:19;4.10;;;2.57;;
51764;SDS011;37835;53.256;6.456;2024-01-07T11:12:03;4.10;;;2.80;;
51764;SDS011;37835;53.256;6.456;2024-01-07T11:17:02;3.78;;;3.10;;
51764;SDS011;37835;53.256;6.456;2024-01-07T11:19:29;11.33;;;3.27;;
51764;SDS011;37835;53.256;6.456;2024-01-07T11:24:55;5.50;;;3.67;;
51764;SDS011;37835;53.256;6.456;2024-01-07T11:27:25;4.87;;;3.70;;
51764;SDS011;37835;53.256;6.456;2024-01-07T11:30:02;6.43;;;3.57;;
51764;SDS011;37835;53.256;6.456;2024-01-07T11:32:33;9.43;;;3.20;;
51764;SDS011;37835;53.256;6.456;2024-01-07T11:34:59;4.47;;;3.23;;
51764;SDS011;37835;53.256;6.456;2024-01-07T11:37:25;5.93;;;3.57;;
51764;SDS011;37835;53.256;6.456;2024-01-07T11:39:54;5.73;;;3.70;;
51764;SDS011;37835;53.256;6.456;2024-01-07T11:42:21;8.33;;;3.50;;
51764;SDS011;37835;53.256;6.456;2024-01-07T11:44:51;9.33;;;3.67;;
51764;SDS011;37835;53.256;6.456;2024-01-07T11:47:18;9.20;;;4.23;;
51764;SDS011;37835;53.256;6.456;2024-01-07T11:49:45;5.97;;;3.70;;
51764;SDS011;37835;53.256;6.456;2024-01-07T11:52:11;9.47;;;3.97;;
51764;SDS011;37835;53.256;6.456;2024-01-07T11:54:40;5.40;;;3.50;;
51764;SDS011;37835;53.256;6.456;2024-01-07T11:57:07;6.53;;;4.00;;
51764;SDS011;37835;53.256;6.456;2024-01-07T11:59:33;9.00;;;4.60;;
51764;SDS011;37835;53.256;6.456;2024-01-07T12:02:02;6.80;;;4.15;;
51764;SDS011;37835;53.256;6.456;2024-01-07T12:04:34;8.13;;;4.13;;
51764;SDS011;37835;53.256;6.456;2024-01-07T12:07:01;7.47;;;4.23;;
51764;SDS011;37835;53.256;6.456;2024-01-07T12:09:28;6.83;;;3.50;;
51764;SDS011;37835;53.256;6.456;2024-01-07T12:11:54;6.00;;;3.72;;
51764;SDS011;37835;53.256;6.456;2024-01-07T12:14:20;7.23;;;3.77;;
51764;SDS011;37835;53.256;6.456;2024-01-07T12:16:46;5.80;;;3.93;;
51764;SDS011;37835;53.256;6.456;2024-01-07T12:19:12;6.57;;;4.17;;
51764;SDS011;37835;53.256;6.456;2024-01-07T12:21:38;9.67;;;4.07;;
51764;SDS011;37835;53.256;6.456;2024-01-07T12:24:04;4.37;;;3.37;;
51764;SDS011;37835;53.256;6.456;2024-01-07T12:26:30;6.97;;;3.27;;
51764;SDS011;37835;53.256;6.456;2024-01-07T12:28:58;7.30;;;3.90;;
51764;SDS011;37835;53.256;6.456;2024-01-07T12:31:31;7.93;;;4.00;;
51764;SDS011;37835;53.256;6.456;2024-01-07T12:33:58;13.27;;;4.37;;
51764;SDS011;37835;53.256;6.456;2024-01-07T12:36:24;7.78;;;3.53;;
51764;SDS011;37835;53.256;6.456;2024-01-07T12:38:50;5.90;;;3.50;;
51764;SDS011;37835;53.256;6.456;2024-01-07T12:41:19;5.10;;;3.53;;
51764;SDS011;37835;53.256;6.456;2024-01-07T12:43:45;7.33;;;3.33;;
51764;SDS011;37835;53.256;6.456;2024-01-07T12:46:11;10.30;;;3.50;;
51764;SDS011;37835;53.256;6.456;2024-01-07T12:48:36;5.40;;;3.45;;
51764;SDS011;37835;53.256;6.456;2024-01-07T12:51:02;5.20;;;3.47;;
51764;SDS011;37835;53.256;6.456;2024-01-07T12:53:28;5.87;;;3.40;;
51764;SDS011;37835;53.256;6.456;2024-01-07T12:55:54;5.25;;;3.65;;
51764;SDS011;37835;53.256;6.456;2024-01-07T12:58:20;6.63;;;3.73;;
51764;SDS011;37835;53.256;6.456;2024-01-07T13:00:46;11.90;;;3.60;;
51764;SDS011;37835;53.256;6.456;2024-01-07T13:03:12;5.60;;;2.97;;
51764;SDS011;37835;53.256;6.456;2024-01-07T13:05:42;6.57;;;3.00;;
51764;SDS011;37835;53.256;6.456;2024-01-07T13:08:13;5.68;;;3.15;;
51764;SDS011;37835;53.256;6.456;2024-01-07T13:10:42;6.10;;;3.38;;
51764;SDS011;37835;53.256;6.456;2024-01-07T13:13:08;6.00;;;3.60;;
51764;SDS011;37835;53.256;6.456;2024-01-07T13:15:35;7.20;;;3.40;;
51764;SDS011;37835;53.256;6.456;2024-01-07T13:18:01;6.57;;;3.10;;
51764;SDS011;37835;53.256;6.456;2024-01-07T13:20:27;4.78;;;2.72;;
51764;SDS011;37835;53.256;6.456;2024-01-07T13:22:53;6.18;;;3.20;;
51764;SDS011;37835;53.256;6.456;2024-01-07T13:25:18;5.00;;;3.43;;
51764;SDS011;37835;53.256;6.456;2024-01-07T13:27:44;7.37;;;3.90;;
51764;SDS011;37835;53.256;6.456;2024-01-07T13:30:10;6.68;;;3.22;;
51764;SDS011;37835;53.256;6.456;2024-01-07T13:32:36;6.03;;;3.42;;
51764;SDS011;37835;53.256;6.456;2024-01-07T13:35:02;7.77;;;3.60;;
51764;SDS011;37835;53.256;6.456;2024-01-07T13:37:29;6.00;;;3.83;;
51764;SDS011;37835;53.256;6.456;2024-01-07T13:39:55;7.18;;;3.65;;
51764;SDS011;37835;53.256;6.456;2024-01-07T13:42:22;6.57;;;4.10;;
51764;SDS011;37835;53.256;6.456;2024-01-07T13:44:47;8.40;;;3.90;;
51764;SDS011;37835;53.256;6.456;2024-01-07T13:47:13;7.83;;;3.67;;
51764;SDS011;37835;53.256;6.456;2024-01-07T13:49:40;5.63;;;3.60;;
51764;SDS011;37835;53.256;6.456;2024-01-07T13:52:06;4.97;;;3.80;;
51764;SDS011;37835;53.256;6.456;2024-01-07T13:54:31;7.35;;;4.47;;
51764;SDS011;37835;53.256;6.456;2024-01-07T13:56:57;9.53;;;4.23;;
51764;SDS011;37835;53.256;6.456;2024-01-07T13:59:23;7.40;;;4.43;;
51764;SDS011;37835;53.256;6.456;2024-01-07T14:01:48;9.13;;;4.30;;
51764;SDS011;37835;53.256;6.456;2024-01-07T14:04:14;9.13;;;4.65;;
51764;SDS011;37835;53.256;6.456;2024-01-07T14:06:40;9.47;;;4.57;;
51764;SDS011;37835;53.256;6.456;2024-01-07T14:09:06;8.07;;;4.20;;
51764;SDS011;37835;53.256;6.456;2024-01-07T14:11:33;8.47;;;4.73;;
51764;SDS011;37835;53.256;6.456;2024-01-07T14:13:59;8.40;;;4.63;;
51764;SDS011;37835;53.256;6.456;2024-01-07T14:16:26;11.63;;;4.80;;
51764;SDS011;37835;53.256;6.456;2024-01-07T14:18:53;7.47;;;4.63;;
51764;SDS011;37835;53.256;6.456;2024-01-07T14:21:19;10.80;;;4.90;;
51764;SDS011;37835;53.256;6.456;2024-01-07T14:23:45;10.00;;;5.20;;
51764;SDS011;37835;53.256;6.456;2024-01-07T14:26:10;7.93;;;5.22;;
51764;SDS011;37835;53.256;6.456;2024-01-07T14:28:36;8.23;;;5.13;;
51764;SDS011;37835;53.256;6.456;2024-01-07T14:31:02;7.20;;;4.80;;
51764;SDS011;37835;53.256;6.456;2024-01-07T14:33:28;8.27;;;4.83;;
51764;SDS011;37835;53.256;6.456;2024-01-07T14:35:54;9.90;;;5.07;;
51764;SDS011;37835;53.256;6.456;2024-01-07T14:38:20;7.03;;;4.50;;
51764;SDS011;37835;53.256;6.456;2024-01-07T14:40:46;7.73;;;4.80;;
51764;SDS011;37835;53.256;6.456;2024-01-07T14:43:12;8.23;;;4.07;;
51764;SDS011;37835;53.256;6.456;2024-01-07T14:45:39;7.43;;;4.07;;
51764;SDS011;37835;53.256;6.456;2024-01-07T14:48:05;11.00;;;4.00;;
51764;SDS011;37835;53.256;6.456;2024-01-07T14:50:31;6.97;;;4.70;;